Youngsville, NM

3:42 PM MDT on May 04, 2015 (GMT -0600)
Las Silvestres | | Change Station
CLOSE
Current Station
Personal Weather Station
Location: Abiquiu, NM
Elevation: 6010 ft
Nearby Weather Stations

Elev 6010 ft 36.21 °N, 106.35 °W | Updated 1 minute ago

Mostly Cloudy
Mostly Cloudy
71.0 °F
Feels Like 77 °F
N
5.0
Wind Variable Wind from East
Gusts 19.0 mph

Today
High -- | Low -- °F
--% Chance of Precip.
Yesterday
High -- | Low -- °F
Precip. -- in
6:10 AM 7:56 PM
Waxing Gibbous, 99% visible
Pressure 30.05 in
Visibility 10.0 miles
Clouds Clear
Heat Index 77 °F
Dew Point 42 °F
Humidity 35%
Rainfall 0.00 in
Snow Depth Not available.
UV 8 out of 12
Pollen 6.80 out of 12
Air Quality Not available.
Flu Activity Local Activity
METAR KLAM 042135Z AUTO 16007G15KT 120V180 10SM CLR 18/00 A3005 RMK AO2 T01760004

More Conditions Fewer Conditions

Pressure 30.05 in
Visibility 10.0 miles
Clouds Clear
Heat Index 77 °F
Dew Point 42 °F
Humidity 35%
Rainfall 0.00 in
Snow Depth Not available.
UV 8 out of 12
Pollen 6.80 out of 12
Air Quality Not available.
Flu Activity Local Activity
METAR KLAM 042135Z AUTO 16007G15KT 120V180 10SM CLR 18/00 A3005 RMK AO2 T01760004

More Conditions Fewer Conditions

Nepal has a long way to go to dig out and rebuild from a devastating earthquake. We have teamed up with several charities and organizations to make contributing to the relief effort as easy as possible.
How you can help: Portlight Strategies | Red Cross
Nowcast | as of 2:02 PM MDT on May 4, 2015

Thunderstorms and showers will continue to increase in coverage this afternoon across central New Mexico...including the northern high terrain. Movement will be to the north around 15 to 20 mph. Thunderstorms will impact much of the area including Interstate 25 from south of Socorro to Pecos. Brief moderate to heavy downpours will produce a quick quarter of an inch of precipitation...and the strongest storms will produce small hail that covers the ground.

×

10-Day Weather Forecast

Almanac

Astronomy

May. 04, 2015 Rise Set
Actual Time
Civil Twilight
Nautical Twilight
Astronomical Twilight
Moon
Length of Visible Light
Length of Day
Tomorrow will be .
, % of the Moon is Illuminated

Today's Extremes

State Highs State Lows

Community

WunderPhotos

Upload Photos

1,818,707 photos uploaded!

WunderBlogs® & News

Nearby

Air Quality

  Air Quality AQ Index Pollutant
Not available.

Snow Depth

Station Depth Elevation

Earthquake Activity

City Distance Mag. Time & Date
Minimum magnitude displayed is 2.5.

Coastal Water Temperatures

Place Temperature

Stations

Nearby Weather Stations

Station Location Temp. Windchill Dew Point Humidity Wind Precip. Elev Updated Type